Meteopurmerend
purmerend
Purmerend - Baaienwijk



My webcam  My webcam


Onweer radar Meer informatie blitzortung!


Regen radar Meer informatie rain snow radar


Bezoek onze andere website:

CandyAppleRed WebdesignWebdesign Purmerend Candy Apple Red

MeteopurmerendBlog

Template documentation
and downloads



Het weer levert geen direct gevaar op.    Er zijn geen waarschuwingen afgegeven.

METAR rapporten vliegvelden

   
EHAM - Amsterdam
Gewijzigd: 26-05-2018 15:25
Licht bewolkt  
Licht bewolkt  
   Wind: NO 20.4 km/h
Wind: NO 20.4 km/h
Temperatuur: 26°C
Dauwpunt: 17°C
Vochtigheid: 58%
Barometer: 1020 hPa
Bewolking: Few Clouds
Zicht: meer dan 10 km
Bewolking: Licht bewolkt 3800 ft
EHAM 261325Z 05011KT 010V080 9999 FEW038 26/17 Q1020 NOSIG
EHRD - Rotterdam
Gewijzigd: 26-05-2018 15:25
Gedeeltelijk bewolkt  
Gedeeltelijk bewolkt  
   Wind: Oosten 18.5 km/h
Wind: Oosten 18.5 km/h
Temperatuur: 29°C
Gevoelstemperatuur: 28°C
Dauwpunt: 14°C
Vochtigheid: 40%
Barometer: 1019 hPa
Bewolking: Partly Cloudy
Zicht: meer dan 10 km
Bewolking: Gedeeltelijk bewolkt ft
EHRD 261325Z AUTO 10010KT 060V130 9999 NSC 29/14 Q1019 NOSIG
EHLE - Lelystad
Gewijzigd: 01-01-1970 01:00
Verouderd
  
  
   Wind: Kalm
Wind: Kalm
EHBK - Maastricht
Gewijzigd: 26-05-2018 15:25
Gedeeltelijk bewolkt  
Gedeeltelijk bewolkt  
   Wind: ONO 18.5 km/h
Wind: ONO 18.5 km/h
Temperatuur: 27°C
Gevoelstemperatuur: 27°C
Dauwpunt: 16°C
Vochtigheid: 51%
Barometer: 1019 hPa
Bewolking: Partly Cloudy
Zicht: meer dan 10 km
Bewolking: Gedeeltelijk bewolkt ft
EHBK 261325Z AUTO 06010KT 020V100 9999 NSC 27/16 Q1019 NOSIG
ELLX - Luxemburg
Gewijzigd: 26-05-2018 15:20
Licht bewolkt  
Licht bewolkt  
   Wind: ZZO 13 km/h
Wind: ZZO 13 km/h
Temperatuur: 27°C
Gevoelstemperatuur: 27°C
Dauwpunt: 14°C
Vochtigheid: 45%
Barometer: 1020 hPa
Bewolking: Few Clouds
Zicht: meer dan 10 km
Bewolking: Licht bewolkt 4800 ft
ELLX 261320Z 15007KT 070V210 9999 FEW048 27/14 Q1020 NOSIG
EBOS - Oostende
Gewijzigd: 26-05-2018 15:20
Gedeeltelijk bewolkt  
Gedeeltelijk bewolkt  
   Wind: NNO 20.4 km/h
Wind: NNO 20.4 km/h
Temperatuur: 25°C
Dauwpunt: 17°C
Vochtigheid: 61%
Barometer: 1018 hPa
Bewolking: Partly Cloudy
Zicht: 9 km
Bewolking: Gedeeltelijk bewolkt ft
EBOS 261320Z 03011KT 9000 NSC 25/17 Q1018 NOSIG

Script ontwikkeld door  Saratoga-weather.org Aangepast voor de template door  Weerstation Leuven

U vindt ons ook hier:

UK Metoffice

European Weather Network

Weather Underground

AWEKAS

Citizen Weather Observer Program (CWOP)

HAMweather, WeatherForYou, PWS Weather

Apparatuur in gebruik:

Weerstation
Davis Vue

Weerprogramma
Meteobridge

Weercomputer
QR code

Webleverancier
Wned

Davis Vue

Meteobridge

QR code

Wned